sensor_id;sensor_type;location;lat;lon;timestamp;temperature;humidity
53310;DHT22;39197;53.200;5.792;2022-09-01T00:01:21;15.80;99.90
53310;DHT22;39197;53.200;5.792;2022-09-01T00:03:50;15.80;99.90
53310;DHT22;39197;53.200;5.792;2022-09-01T00:06:21;15.70;99.90
53310;DHT22;39197;53.200;5.792;2022-09-01T00:08:56;15.70;99.90
53310;DHT22;39197;53.200;5.792;2022-09-01T00:11:23;15.80;99.90
53310;DHT22;39197;53.200;5.792;2022-09-01T00:13:50;15.70;99.90
53310;DHT22;39197;53.200;5.792;2022-09-01T00:16:17;15.70;99.90
53310;DHT22;39197;53.200;5.792;2022-09-01T00:18:47;15.70;99.90
53310;DHT22;39197;53.200;5.792;2022-09-01T00:21:17;15.70;99.90
53310;DHT22;39197;53.200;5.792;2022-09-01T00:23:43;15.70;99.90
53310;DHT22;39197;53.200;5.792;2022-09-01T00:26:08;15.70;99.90
53310;DHT22;39197;53.200;5.792;2022-09-01T00:28:36;15.70;99.90
53310;DHT22;39197;53.200;5.792;2022-09-01T00:31:03;15.60;99.90
53310;DHT22;39197;53.200;5.792;2022-09-01T00:33:29;15.60;99.90
53310;DHT22;39197;53.200;5.792;2022-09-01T00:35:54;15.60;99.90
53310;DHT22;39197;53.200;5.792;2022-09-01T00:38:20;15.50;99.90
53310;DHT22;39197;53.200;5.792;2022-09-01T00:40:46;15.50;99.90
53310;DHT22;39197;53.200;5.792;2022-09-01T00:43:28;15.50;99.90
53310;DHT22;39197;53.200;5.792;2022-09-01T00:46:09;15.40;99.90
53310;DHT22;39197;53.200;5.792;2022-09-01T00:48:35;15.40;99.90
53310;DHT22;39197;53.200;5.792;2022-09-01T00:51:02;15.40;99.90
53310;DHT22;39197;53.200;5.792;2022-09-01T00:53:29;15.40;99.90
53310;DHT22;39197;53.200;5.792;2022-09-01T00:55:54;15.30;99.90
53310;DHT22;39197;53.200;5.792;2022-09-01T00:58:20;15.30;99.90
53310;DHT22;39197;53.200;5.792;2022-09-01T01:00:47;15.30;99.90
53310;DHT22;39197;53.200;5.792;2022-09-01T01:03:14;15.30;99.90
53310;DHT22;39197;53.200;5.792;2022-09-01T01:05:43;15.20;99.90
53310;DHT22;39197;53.200;5.792;2022-09-01T01:08:11;15.20;99.90
53310;DHT22;39197;53.200;5.792;2022-09-01T01:10:40;15.20;99.90
53310;DHT22;39197;53.200;5.792;2022-09-01T01:13:08;15.20;99.90
53310;DHT22;39197;53.200;5.792;2022-09-01T01:15:34;15.10;99.90
53310;DHT22;39197;53.200;5.792;2022-09-01T01:18:00;15.20;99.90
53310;DHT22;39197;53.200;5.792;2022-09-01T01:20:28;15.10;99.90
53310;DHT22;39197;53.200;5.792;2022-09-01T01:23:38;15.10;99.90
53310;DHT22;39197;53.200;5.792;2022-09-01T01:26:07;15.10;99.90
53310;DHT22;39197;53.200;5.792;2022-09-01T01:28:39;15.00;99.90
53310;DHT22;39197;53.200;5.792;2022-09-01T01:31:12;15.10;99.90
53310;DHT22;39197;53.200;5.792;2022-09-01T01:33:46;15.00;99.90
53310;DHT22;39197;53.200;5.792;2022-09-01T01:36:31;15.00;99.90
53310;DHT22;39197;53.200;5.792;2022-09-01T01:39:18;15.00;99.90
53310;DHT22;39197;53.200;5.792;2022-09-01T01:41:45;14.90;99.90
53310;DHT22;39197;53.200;5.792;2022-09-01T01:44:14;14.90;99.90
53310;DHT22;39197;53.200;5.792;2022-09-01T01:46:43;14.90;99.90
53310;DHT22;39197;53.200;5.792;2022-09-01T01:49:10;14.90;99.90
53310;DHT22;39197;53.200;5.792;2022-09-01T01:51:38;14.80;99.90
53310;DHT22;39197;53.200;5.792;2022-09-01T01:54:04;14.80;99.90
53310;DHT22;39197;53.200;5.792;2022-09-01T01:56:33;14.80;99.90
53310;DHT22;39197;53.200;5.792;2022-09-01T01:59:02;14.70;99.90
53310;DHT22;39197;53.200;5.792;2022-09-01T02:01:28;14.70;99.90
53310;DHT22;39197;53.200;5.792;2022-09-01T02:03:57;14.70;99.90
53310;DHT22;39197;53.200;5.792;2022-09-01T02:06:24;14.70;99.90
53310;DHT22;39197;53.200;5.792;2022-09-01T02:08:52;14.60;99.90
53310;DHT22;39197;53.200;5.792;2022-09-01T02:11:21;14.60;99.90
53310;DHT22;39197;53.200;5.792;2022-09-01T02:13:47;14.60;99.90
53310;DHT22;39197;53.200;5.792;2022-09-01T02:16:14;14.60;99.90
53310;DHT22;39197;53.200;5.792;2022-09-01T02:18:45;14.60;99.90
53310;DHT22;39197;53.200;5.792;2022-09-01T02:21:13;14.50;99.90
53310;DHT22;39197;53.200;5.792;2022-09-01T02:23:43;14.50;99.90
53310;DHT22;39197;53.200;5.792;2022-09-01T02:26:09;14.50;99.90
53310;DHT22;39197;53.200;5.792;2022-09-01T02:28:38;14.50;99.90
53310;DHT22;39197;53.200;5.792;2022-09-01T02:31:07;14.50;99.90
53310;DHT22;39197;53.200;5.792;2022-09-01T02:33:34;14.50;99.90
53310;DHT22;39197;53.200;5.792;2022-09-01T02:36:05;14.40;99.90
53310;DHT22;39197;53.200;5.792;2022-09-01T02:38:31;14.40;99.90
53310;DHT22;39197;53.200;5.792;2022-09-01T02:41:00;14.40;99.90
53310;DHT22;39197;53.200;5.792;2022-09-01T02:43:27;14.40;99.90
53310;DHT22;39197;53.200;5.792;2022-09-01T02:45:56;14.30;99.90
53310;DHT22;39197;53.200;5.792;2022-09-01T02:48:26;14.30;99.90
53310;DHT22;39197;53.200;5.792;2022-09-01T02:50:58;14.30;99.90
53310;DHT22;39197;53.200;5.792;2022-09-01T02:53:24;14.30;99.90
53310;DHT22;39197;53.200;5.792;2022-09-01T02:55:50;14.30;99.90
53310;DHT22;39197;53.200;5.792;2022-09-01T02:58:16;14.20;99.90
53310;DHT22;39197;53.200;5.792;2022-09-01T03:00:43;14.20;99.90
53310;DHT22;39197;53.200;5.792;2022-09-01T03:03:09;14.20;99.90
53310;DHT22;39197;53.200;5.792;2022-09-01T03:05:37;14.20;99.90
53310;DHT22;39197;53.200;5.792;2022-09-01T03:08:10;14.20;99.90
53310;DHT22;39197;53.200;5.792;2022-09-01T03:10:40;14.20;99.90
53310;DHT22;39197;53.200;5.792;2022-09-01T03:13:14;14.20;99.90
53310;DHT22;39197;53.200;5.792;2022-09-01T03:15:41;14.20;99.90
53310;DHT22;39197;53.200;5.792;2022-09-01T03:18:09;14.20;99.90
53310;DHT22;39197;53.200;5.792;2022-09-01T03:20:36;14.20;99.90
53310;DHT22;39197;53.200;5.792;2022-09-01T03:23:06;14.20;99.90
53310;DHT22;39197;53.200;5.792;2022-09-01T03:25:34;14.10;99.90
53310;DHT22;39197;53.200;5.792;2022-09-01T03:28:02;14.10;99.90
53310;DHT22;39197;53.200;5.792;2022-09-01T03:30:31;14.10;99.90
53310;DHT22;39197;53.200;5.792;2022-09-01T03:32:57;14.10;99.90
53310;DHT22;39197;53.200;5.792;2022-09-01T03:35:24;14.10;99.90
53310;DHT22;39197;53.200;5.792;2022-09-01T03:37:51;14.10;99.90
53310;DHT22;39197;53.200;5.792;2022-09-01T03:40:17;14.10;99.90
53310;DHT22;39197;53.200;5.792;2022-09-01T03:42:43;14.10;99.90
53310;DHT22;39197;53.200;5.792;2022-09-01T03:45:10;14.10;99.90
53310;DHT22;39197;53.200;5.792;2022-09-01T03:47:40;14.10;99.90
53310;DHT22;39197;53.200;5.792;2022-09-01T03:50:10;14.00;99.90
53310;DHT22;39197;53.200;5.792;2022-09-01T03:52:52;14.00;99.90
53310;DHT22;39197;53.200;5.792;2022-09-01T03:55:21;14.00;99.90
53310;DHT22;39197;53.200;5.792;2022-09-01T03:57:51;14.00;99.90
53310;DHT22;39197;53.200;5.792;2022-09-01T04:00:18;14.00;99.90
53310;DHT22;39197;53.200;5.792;2022-09-01T04:02:50;14.00;99.90
53310;DHT22;39197;53.200;5.792;2022-09-01T04:05:17;13.90;99.90
53310;DHT22;39197;53.200;5.792;2022-09-01T04:07:44;13.90;99.90
53310;DHT22;39197;53.200;5.792;2022-09-01T04:10:13;13.90;99.90
53310;DHT22;39197;53.200;5.792;2022-09-01T04:12:39;13.90;99.90
53310;DHT22;39197;53.200;5.792;2022-09-01T04:15:05;13.90;99.90
53310;DHT22;39197;53.200;5.792;2022-09-01T04:17:33;13.90;99.90
53310;DHT22;39197;53.200;5.792;2022-09-01T04:20:31;13.90;99.90
53310;DHT22;39197;53.200;5.792;2022-09-01T04:23:05;13.90;99.90
53310;DHT22;39197;53.200;5.792;2022-09-01T04:25:36;13.90;99.90
53310;DHT22;39197;53.200;5.792;2022-09-01T04:28:02;13.90;99.90
53310;DHT22;39197;53.200;5.792;2022-09-01T04:30:38;13.90;99.90
53310;DHT22;39197;53.200;5.792;2022-09-01T04:33:06;13.80;99.90
53310;DHT22;39197;53.200;5.792;2022-09-01T04:35:37;13.80;99.90
53310;DHT22;39197;53.200;5.792;2022-09-01T04:38:02;13.80;99.90
53310;DHT22;39197;53.200;5.792;2022-09-01T04:40:28;13.80;99.90
53310;DHT22;39197;53.200;5.792;2022-09-01T04:42:54;13.80;99.90
53310;DHT22;39197;53.200;5.792;2022-09-01T04:45:19;13.80;99.90
53310;DHT22;39197;53.200;5.792;2022-09-01T04:47:51;13.80;99.90
53310;DHT22;39197;53.200;5.792;2022-09-01T04:50:17;13.80;99.90
53310;DHT22;39197;53.200;5.792;2022-09-01T04:52:44;13.80;99.90
53310;DHT22;39197;53.200;5.792;2022-09-01T04:55:12;13.80;99.90
53310;DHT22;39197;53.200;5.792;2022-09-01T04:57:43;13.80;99.90
53310;DHT22;39197;53.200;5.792;2022-09-01T05:00:13;13.80;99.90
53310;DHT22;39197;53.200;5.792;2022-09-01T05:02:47;13.80;99.90
53310;DHT22;39197;53.200;5.792;2022-09-01T05:05:14;13.80;99.90
53310;DHT22;39197;53.200;5.792;2022-09-01T05:07:39;13.80;99.90
53310;DHT22;39197;53.200;5.792;2022-09-01T05:10:05;13.80;99.90
53310;DHT22;39197;53.200;5.792;2022-09-01T05:12:31;13.80;99.90
53310;DHT22;39197;53.200;5.792;2022-09-01T05:14:57;13.80;99.90
53310;DHT22;39197;53.200;5.792;2022-09-01T05:17:22;13.80;99.90
53310;DHT22;39197;53.200;5.792;2022-09-01T05:19:50;13.90;99.90
53310;DHT22;39197;53.200;5.792;2022-09-01T05:22:16;13.80;99.90
53310;DHT22;39197;53.200;5.792;2022-09-01T05:24:43;13.80;99.90
53310;DHT22;39197;53.200;5.792;2022-09-01T05:27:09;13.80;99.90
53310;DHT22;39197;53.200;5.792;2022-09-01T05:29:36;13.90;99.90
53310;DHT22;39197;53.200;5.792;2022-09-01T05:32:02;13.90;99.90
53310;DHT22;39197;53.200;5.792;2022-09-01T05:34:33;13.90;99.90
53310;DHT22;39197;53.200;5.792;2022-09-01T05:37:02;13.90;99.90
53310;DHT22;39197;53.200;5.792;2022-09-01T05:39:27;13.90;99.90
53310;DHT22;39197;53.200;5.792;2022-09-01T05:41:53;13.90;99.90
53310;DHT22;39197;53.200;5.792;2022-09-01T05:44:20;14.00;99.90
53310;DHT22;39197;53.200;5.792;2022-09-01T05:46:49;14.00;99.90
53310;DHT22;39197;53.200;5.792;2022-09-01T05:49:15;14.10;99.90
53310;DHT22;39197;53.200;5.792;2022-09-01T05:51:47;14.20;99.90
53310;DHT22;39197;53.200;5.792;2022-09-01T05:54:22;14.20;99.90
53310;DHT22;39197;53.200;5.792;2022-09-01T05:56:49;14.30;99.90
53310;DHT22;39197;53.200;5.792;2022-09-01T05:59:17;14.40;99.90
53310;DHT22;39197;53.200;5.792;2022-09-01T06:01:46;14.40;99.90
53310;DHT22;39197;53.200;5.792;2022-09-01T06:04:13;14.50;99.90
53310;DHT22;39197;53.200;5.792;2022-09-01T06:06:41;14.60;99.90
53310;DHT22;39197;53.200;5.792;2022-09-01T06:09:12;14.70;99.90
53310;DHT22;39197;53.200;5.792;2022-09-01T06:11:38;14.70;99.90
53310;DHT22;39197;53.200;5.792;2022-09-01T06:14:05;14.70;99.90
53310;DHT22;39197;53.200;5.792;2022-09-01T06:16:33;14.80;99.90
53310;DHT22;39197;53.200;5.792;2022-09-01T06:19:00;14.90;99.90
53310;DHT22;39197;53.200;5.792;2022-09-01T06:21:26;14.90;99.90
53310;DHT22;39197;53.200;5.792;2022-09-01T06:23:55;15.00;99.90
53310;DHT22;39197;53.200;5.792;2022-09-01T06:28:54;15.30;99.90
53310;DHT22;39197;53.200;5.792;2022-09-01T06:31:25;15.30;99.90
53310;DHT22;39197;53.200;5.792;2022-09-01T06:33:52;15.40;99.90
53310;DHT22;39197;53.200;5.792;2022-09-01T06:36:20;15.40;99.90
53310;DHT22;39197;53.200;5.792;2022-09-01T06:38:47;15.50;99.90
53310;DHT22;39197;53.200;5.792;2022-09-01T06:41:12;15.50;99.90
53310;DHT22;39197;53.200;5.792;2022-09-01T06:43:39;15.60;99.90
53310;DHT22;39197;53.200;5.792;2022-09-01T06:46:08;15.70;99.90
53310;DHT22;39197;53.200;5.792;2022-09-01T06:48:36;15.80;99.90
53310;DHT22;39197;53.200;5.792;2022-09-01T06:51:03;15.90;99.90
53310;DHT22;39197;53.200;5.792;2022-09-01T06:53:29;16.00;99.90
53310;DHT22;39197;53.200;5.792;2022-09-01T06:55:56;16.00;99.90
53310;DHT22;39197;53.200;5.792;2022-09-01T06:58:22;16.10;99.90
53310;DHT22;39197;53.200;5.792;2022-09-01T07:00:49;16.20;99.90
53310;DHT22;39197;53.200;5.792;2022-09-01T07:03:16;16.40;99.90
53310;DHT22;39197;53.200;5.792;2022-09-01T07:05:46;16.60;99.90
53310;DHT22;39197;53.200;5.792;2022-09-01T07:08:15;16.90;99.90
53310;DHT22;39197;53.200;5.792;2022-09-01T07:10:50;16.90;99.90
53310;DHT22;39197;53.200;5.792;2022-09-01T07:13:21;17.10;99.90
53310;DHT22;39197;53.200;5.792;2022-09-01T07:15:51;17.50;99.90
53310;DHT22;39197;53.200;5.792;2022-09-01T07:18:18;18.00;99.90
53310;DHT22;39197;53.200;5.792;2022-09-01T07:20:46;18.10;99.90
53310;DHT22;39197;53.200;5.792;2022-09-01T07:23:14;18.10;99.90
53310;DHT22;39197;53.200;5.792;2022-09-01T07:25:44;18.20;99.90
53310;DHT22;39197;53.200;5.792;2022-09-01T07:28:11;18.40;99.90
53310;DHT22;39197;53.200;5.792;2022-09-01T07:30:47;18.70;99.90
53310;DHT22;39197;53.200;5.792;2022-09-01T07:33:15;19.20;99.90
53310;DHT22;39197;53.200;5.792;2022-09-01T07:35:42;19.20;99.90
53310;DHT22;39197;53.200;5.792;2022-09-01T07:38:08;19.50;99.90
53310;DHT22;39197;53.200;5.792;2022-09-01T07:40:39;20.10;99.90
53310;DHT22;39197;53.200;5.792;2022-09-01T07:43:16;20.10;99.90
53310;DHT22;39197;53.200;5.792;2022-09-01T07:45:45;20.20;99.90
53310;DHT22;39197;53.200;5.792;2022-09-01T07:48:15;20.30;99.90
53310;DHT22;39197;53.200;5.792;2022-09-01T07:50:44;20.30;99.90
53310;DHT22;39197;53.200;5.792;2022-09-01T07:53:12;20.90;99.90
53310;DHT22;39197;53.200;5.792;2022-09-01T07:55:41;21.70;99.90
53310;DHT22;39197;53.200;5.792;2022-09-01T07:58:06;22.50;99.90
53310;DHT22;39197;53.200;5.792;2022-09-01T08:00:32;22.70;99.90
53310;DHT22;39197;53.200;5.792;2022-09-01T08:02:58;23.00;99.90
53310;DHT22;39197;53.200;5.792;2022-09-01T08:05:24;22.60;99.90
53310;DHT22;39197;53.200;5.792;2022-09-01T08:07:52;22.50;99.90
53310;DHT22;39197;53.200;5.792;2022-09-01T08:10:18;22.60;99.90
53310;DHT22;39197;53.200;5.792;2022-09-01T08:12:43;23.20;99.90
53310;DHT22;39197;53.200;5.792;2022-09-01T08:15:10;23.50;99.90
53310;DHT22;39197;53.200;5.792;2022-09-01T08:17:37;23.40;99.90
53310;DHT22;39197;53.200;5.792;2022-09-01T08:20:04;23.30;99.90
53310;DHT22;39197;53.200;5.792;2022-09-01T08:22:32;23.20;99.90
53310;DHT22;39197;53.200;5.792;2022-09-01T08:24:58;23.60;99.90
53310;DHT22;39197;53.200;5.792;2022-09-01T08:27:24;23.90;99.90
53310;DHT22;39197;53.200;5.792;2022-09-01T08:29:49;24.10;99.90
53310;DHT22;39197;53.200;5.792;2022-09-01T08:32:15;24.60;99.90
53310;DHT22;39197;53.200;5.792;2022-09-01T08:34:40;24.90;99.90
53310;DHT22;39197;53.200;5.792;2022-09-01T08:37:08;25.30;99.90
53310;DHT22;39197;53.200;5.792;2022-09-01T08:39:33;25.00;99.90
53310;DHT22;39197;53.200;5.792;2022-09-01T08:45:03;25.90;99.90
53310;DHT22;39197;53.200;5.792;2022-09-01T08:47:32;26.40;99.90
53310;DHT22;39197;53.200;5.792;2022-09-01T08:49:58;25.70;99.90
53310;DHT22;39197;53.200;5.792;2022-09-01T08:52:38;25.90;99.90
53310;DHT22;39197;53.200;5.792;2022-09-01T08:55:24;25.90;99.90
53310;DHT22;39197;53.200;5.792;2022-09-01T08:57:54;26.10;99.90
53310;DHT22;39197;53.200;5.792;2022-09-01T09:00:23;26.10;99.90
53310;DHT22;39197;53.200;5.792;2022-09-01T09:03:11;26.10;99.90
53310;DHT22;39197;53.200;5.792;2022-09-01T09:16:54;27.20;98.30
53310;DHT22;39197;53.200;5.792;2022-09-01T09:19:40;27.80;98.80
53310;DHT22;39197;53.200;5.792;2022-09-01T09:22:08;28.40;97.80
53310;DHT22;39197;53.200;5.792;2022-09-01T09:27:31;28.60;96.40
53310;DHT22;39197;53.200;5.792;2022-09-01T09:32:48;28.70;96.20
53310;DHT22;39197;53.200;5.792;2022-09-01T09:35:24;28.80;94.60
53310;DHT22;39197;53.200;5.792;2022-09-01T09:37:51;28.60;94.70
53310;DHT22;39197;53.200;5.792;2022-09-01T09:40:24;29.20;94.80
53310;DHT22;39197;53.200;5.792;2022-09-01T09:45:24;29.40;94.20
53310;DHT22;39197;53.200;5.792;2022-09-01T09:47:52;29.60;93.40
53310;DHT22;39197;53.200;5.792;2022-09-01T09:50:45;30.00;93.60
53310;DHT22;39197;53.200;5.792;2022-09-01T09:55:58;30.20;92.70
53310;DHT22;39197;53.200;5.792;2022-09-01T09:58:28;30.50;92.60
53310;DHT22;39197;53.200;5.792;2022-09-01T10:01:06;30.20;91.50
53310;DHT22;39197;53.200;5.792;2022-09-01T10:03:42;30.00;90.10
53310;DHT22;39197;53.200;5.792;2022-09-01T10:06:13;30.10;90.10
53310;DHT22;39197;53.200;5.792;2022-09-01T10:08:43;30.20;89.50
53310;DHT22;39197;53.200;5.792;2022-09-01T10:11:24;30.00;90.20
53310;DHT22;39197;53.200;5.792;2022-09-01T10:13:52;30.10;90.10
53310;DHT22;39197;53.200;5.792;2022-09-01T10:16:29;29.60;89.00
53310;DHT22;39197;53.200;5.792;2022-09-01T10:18:58;29.60;89.90
53310;DHT22;39197;53.200;5.792;2022-09-01T10:21:43;30.00;89.60
53310;DHT22;39197;53.200;5.792;2022-09-01T10:24:32;30.40;88.30
53310;DHT22;39197;53.200;5.792;2022-09-01T10:27:02;30.30;87.10
53310;DHT22;39197;53.200;5.792;2022-09-01T10:29:34;30.30;88.40
53310;DHT22;39197;53.200;5.792;2022-09-01T10:32:03;30.20;87.20
53310;DHT22;39197;53.200;5.792;2022-09-01T10:34:34;29.40;87.20
53310;DHT22;39197;53.200;5.792;2022-09-01T10:37:02;29.50;88.10
53310;DHT22;39197;53.200;5.792;2022-09-01T10:39:27;30.00;87.60
53310;DHT22;39197;53.200;5.792;2022-09-01T10:42:00;29.90;87.10
53310;DHT22;39197;53.200;5.792;2022-09-01T10:44:53;29.50;86.60
53310;DHT22;39197;53.200;5.792;2022-09-01T10:47:31;29.50;86.70
53310;DHT22;39197;53.200;5.792;2022-09-01T10:50:25;29.50;84.60
53310;DHT22;39197;53.200;5.792;2022-09-01T10:52:53;28.70;84.40
53310;DHT22;39197;53.200;5.792;2022-09-01T10:55:26;28.20;85.90
53310;DHT22;39197;53.200;5.792;2022-09-01T11:00:46;27.50;87.20
53310;DHT22;39197;53.200;5.792;2022-09-01T11:06:05;28.30;83.30
53310;DHT22;39197;53.200;5.792;2022-09-01T11:11:22;27.40;82.90
53310;DHT22;39197;53.200;5.792;2022-09-01T11:13:52;27.30;83.00
53310;DHT22;39197;53.200;5.792;2022-09-01T11:16:26;27.80;83.20
53310;DHT22;39197;53.200;5.792;2022-09-01T11:18:53;28.70;82.30
53310;DHT22;39197;53.200;5.792;2022-09-01T11:21:27;29.50;81.40
53310;DHT22;39197;53.200;5.792;2022-09-01T11:26:57;30.80;75.00
53310;DHT22;39197;53.200;5.792;2022-09-01T11:32:18;31.20;73.00
53310;DHT22;39197;53.200;5.792;2022-09-01T11:34:45;31.10;74.10
53310;DHT22;39197;53.200;5.792;2022-09-01T11:37:15;31.30;75.30
53310;DHT22;39197;53.200;5.792;2022-09-01T11:39:42;31.00;74.40
53310;DHT22;39197;53.200;5.792;2022-09-01T11:45:03;29.10;73.10
53310;DHT22;39197;53.200;5.792;2022-09-01T11:47:39;28.20;74.50
53310;DHT22;39197;53.200;5.792;2022-09-01T11:53:06;27.70;75.70
53310;DHT22;39197;53.200;5.792;2022-09-01T11:55:36;28.30;75.50
53310;DHT22;39197;53.200;5.792;2022-09-01T11:58:05;28.80;74.70
53310;DHT22;39197;53.200;5.792;2022-09-01T12:00:36;29.20;74.10
53310;DHT22;39197;53.200;5.792;2022-09-01T12:03:18;29.10;74.10
53310;DHT22;39197;53.200;5.792;2022-09-01T12:05:45;29.10;74.10
53310;DHT22;39197;53.200;5.792;2022-09-01T12:08:17;28.90;74.80
53310;DHT22;39197;53.200;5.792;2022-09-01T12:10:44;29.20;74.40
53310;DHT22;39197;53.200;5.792;2022-09-01T12:13:17;29.70;73.50
53310;DHT22;39197;53.200;5.792;2022-09-01T12:15:43;29.80;72.40
53310;DHT22;39197;53.200;5.792;2022-09-01T12:18:22;30.30;72.40
53310;DHT22;39197;53.200;5.792;2022-09-01T12:20:51;30.70;72.40
53310;DHT22;39197;53.200;5.792;2022-09-01T12:25:54;31.30;71.40
53310;DHT22;39197;53.200;5.792;2022-09-01T12:28:24;31.70;71.00
53310;DHT22;39197;53.200;5.792;2022-09-01T12:30:51;31.50;70.40
53310;DHT22;39197;53.200;5.792;2022-09-01T12:33:18;31.00;69.80
53310;DHT22;39197;53.200;5.792;2022-09-01T12:35:45;30.80;69.90
53310;DHT22;39197;53.200;5.792;2022-09-01T12:38:27;30.20;69.70
53310;DHT22;39197;53.200;5.792;2022-09-01T12:40:55;30.50;69.20
53310;DHT22;39197;53.200;5.792;2022-09-01T12:45:52;30.30;69.40
53310;DHT22;39197;53.200;5.792;2022-09-01T12:48:26;30.20;70.30
53310;DHT22;39197;53.200;5.792;2022-09-01T12:50:54;29.60;70.10
53310;DHT22;39197;53.200;5.792;2022-09-01T12:53:22;29.20;70.80
53310;DHT22;39197;53.200;5.792;2022-09-01T12:56:18;29.60;71.00
53310;DHT22;39197;53.200;5.792;2022-09-01T12:58:46;29.80;70.80
53310;DHT22;39197;53.200;5.792;2022-09-01T13:01:25;29.60;70.60
53310;DHT22;39197;53.200;5.792;2022-09-01T13:04:27;30.10;70.30
53310;DHT22;39197;53.200;5.792;2022-09-01T13:06:55;30.50;70.10
53310;DHT22;39197;53.200;5.792;2022-09-01T13:09:22;30.50;69.70
53310;DHT22;39197;53.200;5.792;2022-09-01T13:11:47;30.10;69.40
53310;DHT22;39197;53.200;5.792;2022-09-01T13:14:15;29.70;70.00
53310;DHT22;39197;53.200;5.792;2022-09-01T13:16:41;29.70;70.90
53310;DHT22;39197;53.200;5.792;2022-09-01T13:19:07;30.00;70.90
53310;DHT22;39197;53.200;5.792;2022-09-01T13:21:34;30.10;70.50
53310;DHT22;39197;53.200;5.792;2022-09-01T13:24:02;30.40;69.60
53310;DHT22;39197;53.200;5.792;2022-09-01T13:26:29;30.40;69.10
53310;DHT22;39197;53.200;5.792;2022-09-01T13:28:56;30.30;69.40
53310;DHT22;39197;53.200;5.792;2022-09-01T13:31:22;30.90;69.50
53310;DHT22;39197;53.200;5.792;2022-09-01T13:33:48;30.90;69.30
53310;DHT22;39197;53.200;5.792;2022-09-01T13:36:14;31.10;69.00
53310;DHT22;39197;53.200;5.792;2022-09-01T13:38:39;31.00;68.60
53310;DHT22;39197;53.200;5.792;2022-09-01T13:41:05;30.70;68.10
53310;DHT22;39197;53.200;5.792;2022-09-01T13:43:32;31.10;68.20
53310;DHT22;39197;53.200;5.792;2022-09-01T13:45:58;31.50;68.10
53310;DHT22;39197;53.200;5.792;2022-09-01T13:48:24;30.60;67.70
53310;DHT22;39197;53.200;5.792;2022-09-01T13:50:50;30.40;68.10
53310;DHT22;39197;53.200;5.792;2022-09-01T13:53:19;29.90;68.50
53310;DHT22;39197;53.200;5.792;2022-09-01T13:55:46;29.50;69.30
53310;DHT22;39197;53.200;5.792;2022-09-01T13:58:12;29.00;69.40
53310;DHT22;39197;53.200;5.792;2022-09-01T14:00:43;28.40;69.60
53310;DHT22;39197;53.200;5.792;2022-09-01T14:03:14;28.50;69.80
53310;DHT22;39197;53.200;5.792;2022-09-01T14:05:42;28.90;73.90
53310;DHT22;39197;53.200;5.792;2022-09-01T14:08:09;29.10;75.20
53310;DHT22;39197;53.200;5.792;2022-09-01T14:10:42;29.00;76.40
53310;DHT22;39197;53.200;5.792;2022-09-01T14:13:10;29.30;76.40
53310;DHT22;39197;53.200;5.792;2022-09-01T14:15:36;28.80;76.70
53310;DHT22;39197;53.200;5.792;2022-09-01T14:18:03;29.30;76.90
53310;DHT22;39197;53.200;5.792;2022-09-01T14:20:34;29.20;76.90
53310;DHT22;39197;53.200;5.792;2022-09-01T14:23:04;29.40;76.60
53310;DHT22;39197;53.200;5.792;2022-09-01T14:25:31;29.40;76.50
53310;DHT22;39197;53.200;5.792;2022-09-01T14:27:58;29.50;76.30
53310;DHT22;39197;53.200;5.792;2022-09-01T14:30:27;29.40;76.20
53310;DHT22;39197;53.200;5.792;2022-09-01T14:32:53;29.50;76.30
53310;DHT22;39197;53.200;5.792;2022-09-01T14:35:21;29.30;76.30
53310;DHT22;39197;53.200;5.792;2022-09-01T14:37:49;29.40;76.00
53310;DHT22;39197;53.200;5.792;2022-09-01T14:40:17;29.20;75.60
53310;DHT22;39197;53.200;5.792;2022-09-01T14:42:47;28.70;76.20
53310;DHT22;39197;53.200;5.792;2022-09-01T14:45:18;28.50;76.70
53310;DHT22;39197;53.200;5.792;2022-09-01T14:47:45;28.00;76.80
53310;DHT22;39197;53.200;5.792;2022-09-01T14:50:12;27.90;77.40
53310;DHT22;39197;53.200;5.792;2022-09-01T14:52:37;27.80;77.60
53310;DHT22;39197;53.200;5.792;2022-09-01T14:55:04;27.90;78.00
53310;DHT22;39197;53.200;5.792;2022-09-01T14:57:30;28.00;78.10
53310;DHT22;39197;53.200;5.792;2022-09-01T14:59:57;28.30;77.40
53310;DHT22;39197;53.200;5.792;2022-09-01T15:02:23;28.50;76.90
53310;DHT22;39197;53.200;5.792;2022-09-01T15:04:50;28.70;76.70
53310;DHT22;39197;53.200;5.792;2022-09-01T15:07:16;28.80;76.50
53310;DHT22;39197;53.200;5.792;2022-09-01T15:09:41;29.20;76.30
53310;DHT22;39197;53.200;5.792;2022-09-01T15:12:07;29.40;76.20
53310;DHT22;39197;53.200;5.792;2022-09-01T15:14:34;29.30;76.50
53310;DHT22;39197;53.200;5.792;2022-09-01T15:17:00;29.20;76.20
53310;DHT22;39197;53.200;5.792;2022-09-01T15:19:26;29.20;75.80
53310;DHT22;39197;53.200;5.792;2022-09-01T15:21:51;28.70;76.20
53310;DHT22;39197;53.200;5.792;2022-09-01T15:24:17;28.80;76.80
53310;DHT22;39197;53.200;5.792;2022-09-01T15:26:43;28.40;78.90
53310;DHT22;39197;53.200;5.792;2022-09-01T15:29:12;28.30;80.20
53310;DHT22;39197;53.200;5.792;2022-09-01T15:31:40;28.10;80.70
53310;DHT22;39197;53.200;5.792;2022-09-01T15:34:06;28.40;79.70
53310;DHT22;39197;53.200;5.792;2022-09-01T15:36:35;28.40;80.00
53310;DHT22;39197;53.200;5.792;2022-09-01T15:39:01;28.30;80.20
53310;DHT22;39197;53.200;5.792;2022-09-01T15:41:29;28.40;80.20
53310;DHT22;39197;53.200;5.792;2022-09-01T15:43:56;28.10;80.40
53310;DHT22;39197;53.200;5.792;2022-09-01T15:46:22;28.40;80.70
53310;DHT22;39197;53.200;5.792;2022-09-01T15:48:56;28.60;80.40
53310;DHT22;39197;53.200;5.792;2022-09-01T15:53:54;28.50;80.70
53310;DHT22;39197;53.200;5.792;2022-09-01T15:56:20;28.00;80.80
53310;DHT22;39197;53.200;5.792;2022-09-01T15:58:47;27.60;81.10
53310;DHT22;39197;53.200;5.792;2022-09-01T16:01:14;27.40;81.40
53310;DHT22;39197;53.200;5.792;2022-09-01T16:03:40;27.30;81.50
53310;DHT22;39197;53.200;5.792;2022-09-01T16:06:06;27.20;81.80
53310;DHT22;39197;53.200;5.792;2022-09-01T16:08:33;26.60;82.60
53310;DHT22;39197;53.200;5.792;2022-09-01T16:10:59;26.30;83.40
53310;DHT22;39197;53.200;5.792;2022-09-01T16:13:24;26.40;84.10
53310;DHT22;39197;53.200;5.792;2022-09-01T16:24:23;26.40;84.90
53310;DHT22;39197;53.200;5.792;2022-09-01T16:26:50;26.50;84.70
53310;DHT22;39197;53.200;5.792;2022-09-01T16:32:06;26.30;85.20
53310;DHT22;39197;53.200;5.792;2022-09-01T16:34:32;26.20;85.70
53310;DHT22;39197;53.200;5.792;2022-09-01T16:37:08;26.10;86.20
53310;DHT22;39197;53.200;5.792;2022-09-01T16:39:48;26.10;86.60
53310;DHT22;39197;53.200;5.792;2022-09-01T16:56:07;25.20;89.60
53310;DHT22;39197;53.200;5.792;2022-09-01T17:12:46;24.60;91.10
53310;DHT22;39197;53.200;5.792;2022-09-01T17:15:15;24.70;91.00
53310;DHT22;39197;53.200;5.792;2022-09-01T17:17:52;24.50;90.90